Time;durP1;ratioP1;P1;durP2;ratioP2;P2;SDS_P1;SDS_P2;PMS_P1;PMS_P2;Temp;Humidity;BMP_temperature;BMP_pressure;BME280_temperature;BME280_humidity;BME280_pressure;Samples;Min_cycle;Max_cycle;Signal;HPM_P1;HPM_P2
2022/01/10 00:02:03;;;;;;;24.70;11.60;;;;;2.32;96424.00;;;;111707;1243;41162;-68
2022/01/10 00:04:33;;;;;;;26.20;13.70;;;;;2.30;96423.40;;;;111433;1245;41962;-69
2022/01/10 00:07:02;;;;;;;23.30;11.20;;;;;2.30;96433.20;;;;111802;1244;42218;-68
2022/01/10 00:09:32;;;;;;;24.60;12.00;;;;;2.30;96439.40;;;;111620;1241;41195;-70
2022/01/10 00:12:01;;;;;;;26.20;10.70;;;;;2.30;96430.00;;;;111843;1244;41258;-69
2022/01/10 00:14:36;;;;;;;26.40;13.00;;;;;2.30;96427.00;;;;111575;1244;41720;-69
2022/01/10 00:17:05;;;;;;;26.10;12.20;;;;;2.30;96430.40;;;;111938;1242;41348;-69
2022/01/10 00:19:34;;;;;;;26.80;13.40;;;;;2.30;96433.60;;;;111934;1241;41662;-68
2022/01/10 00:22:06;;;;;;;29.60;14.60;;;;;2.30;96428.20;;;;111933;1244;41586;-68
2022/01/10 00:24:36;;;;;;;29.90;13.90;;;;;2.24;96432.60;;;;111915;1243;41369;-67
2022/01/10 00:27:05;;;;;;;26.80;13.20;;;;;2.20;96421.00;;;;111892;1244;41129;-68
2022/01/10 00:29:34;;;;;;;33.40;12.50;;;;;2.20;96428.60;;;;111698;1244;41160;-67
2022/01/10 00:32:04;;;;;;;29.30;12.60;;;;;2.20;96429.00;;;;111913;1244;41417;-68
2022/01/10 00:34:33;;;;;;;24.70;12.20;;;;;2.20;96433.20;;;;111913;1244;41382;-68
2022/01/10 00:37:03;;;;;;;30.70;13.10;;;;;2.20;96436.80;;;;111619;1244;42242;-68
2022/01/10 00:39:33;;;;;;;24.90;11.00;;;;;2.22;96446.60;;;;111928;1244;41924;-67
2022/01/10 00:42:02;;;;;;;25.20;10.90;;;;;2.22;96442.80;;;;111877;1244;42350;-69
2022/01/10 00:44:37;;;;;;;27.60;11.30;;;;;2.30;96442.40;;;;111905;1244;41146;-68
2022/01/10 00:47:08;;;;;;;25.40;10.90;;;;;2.30;96449.00;;;;111633;1245;40900;-68
2022/01/10 00:49:37;;;;;;;29.10;12.30;;;;;2.30;96450.20;;;;111869;1244;41380;-69
2022/01/10 00:52:06;;;;;;;25.50;11.50;;;;;2.30;96456.60;;;;111663;1244;41145;-69
2022/01/10 00:54:37;;;;;;;27.10;11.50;;;;;2.30;96450.20;;;;111992;1242;41130;-67
2022/01/10 00:57:07;;;;;;;26.90;10.40;;;;;2.40;96445.20;;;;112006;1242;42296;-68
2022/01/10 00:59:36;;;;;;;27.50;10.90;;;;;2.40;96442.00;;;;111701;1244;42368;-67
2022/01/10 01:02:06;;;;;;;26.60;11.40;;;;;2.40;96445.40;;;;111658;1242;41595;-67
2022/01/10 01:04:35;;;;;;;26.60;10.80;;;;;2.40;96438.00;;;;111951;1241;41458;-68
2022/01/10 01:07:04;;;;;;;29.10;11.20;;;;;2.40;96435.80;;;;111765;1244;41486;-68
2022/01/10 01:09:34;;;;;;;28.60;11.60;;;;;2.40;96434.20;;;;111841;1242;41117;-68
2022/01/10 01:12:31;;;;;;;29.30;12.30;;;;;2.40;96429.00;;;;111947;1241;41404;-68
2022/01/10 01:15:17;;;;;;;35.20;16.00;;;;;2.40;96422.00;;;;111881;1243;41133;-67
2022/01/10 01:25:59;;;;;;;27.90;12.10;;;;;2.30;96425.60;;;;111654;1242;42194;-68
2022/01/10 01:28:30;;;;;;;27.90;11.40;;;;;2.30;96424.60;;;;111533;1244;41450;-68
2022/01/10 01:30:59;;;;;;;29.00;12.60;;;;;2.30;96424.80;;;;111743;1244;41154;-68
2022/01/10 01:33:29;;;;;;;30.70;11.60;;;;;2.30;96423.40;;;;111977;1242;42835;-68
2022/01/10 01:35:59;;;;;;;29.70;11.10;;;;;2.30;96431.40;;;;111973;1242;41148;-68
2022/01/10 01:38:29;;;;;;;27.70;11.20;;;;;2.30;96433.80;;;;111764;1244;41184;-68
2022/01/10 01:41:16;;;;;;;32.20;12.30;;;;;2.40;96432.60;;;;111389;1244;42359;-66
2022/01/10 01:43:48;;;;;;;28.40;11.20;;;;;2.40;96428.40;;;;111527;1243;41195;-68
2022/01/10 01:46:18;;;;;;;27.20;10.20;;;;;2.40;96428.40;;;;111514;1244;43005;-67
2022/01/10 01:48:50;;;;;;;24.00;10.00;;;;;2.40;96430.20;;;;111475;1243;41648;-68
2022/01/10 01:51:23;;;;;;;27.30;10.30;;;;;2.40;96435.40;;;;111502;1244;41254;-69
2022/01/10 01:53:54;;;;;;;26.10;9.80;;;;;2.40;96429.60;;;;111571;1243;41929;-67
2022/01/10 01:56:24;;;;;;;26.70;11.30;;;;;2.48;96432.20;;;;111640;1244;41937;-67
2022/01/10 01:58:55;;;;;;;26.80;10.90;;;;;2.46;96437.20;;;;111581;1244;41164;-68
2022/01/10 02:01:26;;;;;;;28.80;11.20;;;;;2.46;96445.20;;;;111518;1244;41498;-67
2022/01/10 02:03:56;;;;;;;23.10;10.00;;;;;2.46;96439.20;;;;111604;1244;41279;-68
2022/01/10 02:06:29;;;;;;;26.00;12.00;;;;;2.50;96442.80;;;;111751;1242;41243;-67
2022/01/10 02:09:00;;;;;;;34.70;12.60;;;;;2.42;96438.80;;;;111924;1240;41156;-67
2022/01/10 02:11:31;;;;;;;28.20;11.20;;;;;2.40;96434.20;;;;111595;1243;41277;-68
2022/01/10 02:14:04;;;;;;;25.70;10.20;;;;;2.40;96432.20;;;;111452;1244;41246;-69
2022/01/10 02:16:46;;;;;;;23.40;9.80;;;;;2.40;96428.60;;;;111717;1242;41234;-70
2022/01/10 02:19:23;;;;;;;25.20;11.00;;;;;2.48;96418.00;;;;111702;1243;41127;-70
2022/01/10 02:21:53;;;;;;;29.90;12.10;;;;;2.42;96415.20;;;;111779;1241;41144;-70
2022/01/10 02:24:23;;;;;;;26.60;11.10;;;;;2.40;96412.20;;;;111564;1244;41528;-67
2022/01/10 02:26:56;;;;;;;27.60;11.50;;;;;2.40;96414.40;;;;111968;1244;41177;-67
2022/01/10 02:29:26;;;;;;;25.20;10.60;;;;;2.40;96421.40;;;;111712;1244;41255;-67
2022/01/10 02:31:55;;;;;;;25.00;10.20;;;;;2.40;96416.40;;;;111665;1244;41148;-68
2022/01/10 02:34:26;;;;;;;26.90;10.80;;;;;2.40;96420.20;;;;111666;1243;41180;-68
2022/01/10 02:36:58;;;;;;;24.10;10.10;;;;;2.40;96421.40;;;;111989;1241;41450;-68
2022/01/10 02:39:29;;;;;;;25.40;10.40;;;;;2.40;96425.00;;;;111668;1244;41407;-68
2022/01/10 02:41:59;;;;;;;24.60;11.00;;;;;2.40;96419.60;;;;111908;1244;42372;-67
2022/01/10 02:44:29;;;;;;;25.80;10.90;;;;;2.48;96423.20;;;;111963;1241;41144;-67
2022/01/10 02:46:59;;;;;;;25.40;10.40;;;;;2.50;96421.20;;;;111699;1242;41130;-67
2022/01/10 02:49:34;;;;;;;26.40;9.60;;;;;2.50;96425.20;;;;111658;1244;41724;-68
2022/01/10 02:52:06;;;;;;;28.30;11.80;;;;;2.50;96422.80;;;;111916;1242;41311;-68
2022/01/10 02:54:36;;;;;;;26.10;10.00;;;;;2.50;96424.20;;;;111667;1243;41368;-69
2022/01/10 02:57:13;;;;;;;26.40;10.50;;;;;2.50;96423.20;;;;111652;1244;41238;-69
2022/01/10 02:59:43;;;;;;;24.70;10.00;;;;;2.50;96425.00;;;;111946;1244;41139;-68
2022/01/10 03:02:19;;;;;;;27.60;10.70;;;;;2.50;96426.20;;;;111694;1242;41602;-67
2022/01/10 03:04:51;;;;;;;28.50;11.10;;;;;2.50;96431.00;;;;112009;1242;41145;-68
2022/01/10 03:07:24;;;;;;;40.10;13.00;;;;;2.50;96426.60;;;;111333;1244;41606;-67
2022/01/10 03:09:54;;;;;;;32.20;13.30;;;;;2.50;96432.40;;;;111748;1242;41664;-67
2022/01/10 03:12:25;;;;;;;57.70;13.20;;;;;2.50;96434.60;;;;111651;1244;41360;-67
2022/01/10 03:14:55;;;;;;;29.90;12.30;;;;;2.50;96430.80;;;;111619;1244;41623;-67
2022/01/10 03:17:25;;;;;;;31.30;12.00;;;;;2.56;96430.40;;;;111956;1243;41238;-67
2022/01/10 03:19:54;;;;;;;24.90;11.30;;;;;2.52;96428.60;;;;111948;1243;41128;-68
2022/01/10 03:22:26;;;;;;;27.10;11.30;;;;;2.54;96429.40;;;;111875;1244;42207;-67
2022/01/10 03:24:56;;;;;;;29.60;12.80;;;;;2.52;96442.00;;;;111719;1244;41332;-66
2022/01/10 03:27:26;;;;;;;28.90;11.30;;;;;2.56;96445.60;;;;111913;1241;41149;-68
2022/01/10 03:29:56;;;;;;;25.60;10.70;;;;;2.60;96455.40;;;;111934;1243;41433;-67
2022/01/10 03:32:25;;;;;;;27.50;11.20;;;;;2.60;96453.60;;;;111891;1243;41148;-67
2022/01/10 03:34:59;;;;;;;25.60;11.20;;;;;2.60;96447.80;;;;111646;1244;41145;-67
2022/01/10 03:37:29;;;;;;;27.70;10.50;;;;;2.60;96458.40;;;;111640;1244;41259;-68
2022/01/10 03:39:59;;;;;;;25.80;10.30;;;;;2.60;96459.40;;;;111965;1244;41245;-68
2022/01/10 03:42:28;;;;;;;23.40;9.70;;;;;2.60;96461.00;;;;111654;1244;41144;-67
2022/01/10 03:45:06;;;;;;;23.60;9.60;;;;;2.60;96454.60;;;;111687;1243;41163;-68
2022/01/10 03:47:36;;;;;;;24.10;10.10;;;;;2.60;96461.40;;;;111895;1243;41513;-68
2022/01/10 03:50:06;;;;;;;26.60;10.20;;;;;2.60;96462.40;;;;111965;1241;41355;-68
2022/01/10 03:52:35;;;;;;;24.40;10.40;;;;;2.60;96456.40;;;;111986;1241;41187;-67
2022/01/10 03:55:05;;;;;;;26.20;10.70;;;;;2.60;96466.00;;;;111874;1243;42355;-67
2022/01/10 03:57:35;;;;;;;28.50;11.20;;;;;2.60;96461.20;;;;111968;1243;41156;-68
2022/01/10 04:00:07;;;;;;;26.10;10.00;;;;;2.60;96467.20;;;;111670;1244;41495;-68
2022/01/10 04:02:50;;;;;;;27.90;11.10;;;;;2.60;96473.60;;;;111925;1241;42228;-68
2022/01/10 04:05:22;;;;;;;27.00;10.90;;;;;2.62;96473.20;;;;111709;1244;42005;-68
2022/01/10 04:07:51;;;;;;;25.80;10.10;;;;;2.60;96479.40;;;;111696;1244;41264;-69
2022/01/10 04:10:21;;;;;;;27.40;10.40;;;;;2.60;96479.00;;;;111904;1241;41217;-68
2022/01/10 04:12:50;;;;;;;24.90;10.20;;;;;2.64;96483.40;;;;111884;1242;41704;-68
2022/01/10 04:15:19;;;;;;;26.10;10.00;;;;;2.60;96489.80;;;;111890;1243;41192;-68
2022/01/10 04:17:55;;;;;;;26.90;10.20;;;;;2.62;96489.20;;;;111670;1244;41630;-69
2022/01/10 04:20:25;;;;;;;25.70;10.20;;;;;2.62;96486.20;;;;111663;1244;41233;-68
2022/01/10 04:22:55;;;;;;;27.30;10.60;;;;;2.62;96494.60;;;;111483;1244;41228;-70
2022/01/10 04:25:25;;;;;;;27.20;10.60;;;;;2.60;96495.60;;;;111593;1244;41739;-69
2022/01/10 04:27:55;;;;;;;28.80;10.80;;;;;2.60;96499.20;;;;111815;1242;42534;-69
2022/01/10 04:30:28;;;;;;;26.30;10.40;;;;;2.66;96499.20;;;;111956;1242;42278;-68
2022/01/10 04:32:59;;;;;;;29.10;10.80;;;;;2.66;96494.60;;;;111888;1242;41776;-68
2022/01/10 04:35:30;;;;;;;29.10;11.50;;;;;2.62;96496.80;;;;112000;1241;41379;-68
2022/01/10 04:38:00;;;;;;;27.60;10.30;;;;;2.66;96500.40;;;;112026;1241;41144;-68
2022/01/10 04:40:29;;;;;;;24.30;10.30;;;;;2.68;96500.60;;;;111818;1242;41124;-67
2022/01/10 04:42:58;;;;;;;28.10;10.70;;;;;2.68;96506.00;;;;111861;1242;43173;-67
2022/01/10 04:45:28;;;;;;;27.90;10.80;;;;;2.70;96503.60;;;;111992;1242;41253;-67
2022/01/10 04:47:58;;;;;;;30.20;11.10;;;;;2.68;96508.00;;;;111972;1241;41256;-68
2022/01/10 04:53:23;;;;;;;25.00;10.70;;;;;2.70;96521.40;;;;111683;1244;41242;-68
2022/01/10 04:55:53;;;;;;;29.30;11.00;;;;;2.70;96529.20;;;;111956;1242;41115;-68
2022/01/10 04:58:23;;;;;;;33.70;11.60;;;;;2.70;96531.60;;;;111554;1243;41943;-67
2022/01/10 05:00:54;;;;;;;30.20;11.40;;;;;2.70;96531.20;;;;111797;1242;41129;-68
2022/01/10 05:03:25;;;;;;;32.80;11.40;;;;;2.70;96540.80;;;;111810;1242;41832;-68
2022/01/10 05:05:55;;;;;;;32.20;11.50;;;;;2.70;96540.80;;;;111728;1241;41783;-68
2022/01/10 05:08:26;;;;;;;29.60;10.70;;;;;2.70;96543.00;;;;111556;1244;41475;-67
2022/01/10 05:10:55;;;;;;;33.10;11.60;;;;;2.70;96547.40;;;;111393;1244;41248;-67
2022/01/10 05:13:26;;;;;;;26.90;10.40;;;;;2.70;96547.60;;;;111443;1244;41155;-68
2022/01/10 05:15:55;;;;;;;29.90;10.60;;;;;2.70;96547.80;;;;111509;1241;41711;-68
2022/01/10 05:18:25;;;;;;;28.80;10.40;;;;;2.70;96556.80;;;;111609;1244;41717;-67
2022/01/10 05:20:54;;;;;;;29.60;10.70;;;;;2.70;96555.80;;;;111447;1244;42129;-68
2022/01/10 05:23:23;;;;;;;31.50;11.30;;;;;2.70;96555.00;;;;111981;1243;41607;-68
2022/01/10 05:25:52;;;;;;;30.90;11.40;;;;;2.70;96557.60;;;;111950;1243;41137;-68
2022/01/10 05:28:22;;;;;;;31.60;10.80;;;;;2.70;96561.80;;;;111906;1243;41476;-68
2022/01/10 05:30:54;;;;;;;35.50;14.20;;;;;2.72;96569.00;;;;111888;1244;41129;-68
2022/01/10 05:33:27;;;;;;;30.10;11.80;;;;;2.70;96567.40;;;;111719;1244;41137;-68
2022/01/10 05:35:56;;;;;;;37.30;14.00;;;;;2.70;96574.40;;;;111997;1242;41863;-67
2022/01/10 05:38:25;;;;;;;32.80;12.20;;;;;2.60;96579.00;;;;111673;1244;41450;-67
2022/01/10 05:40:54;;;;;;;34.70;13.50;;;;;2.60;96588.60;;;;111556;1244;41304;-68
2022/01/10 05:43:23;;;;;;;30.00;11.40;;;;;2.60;96596.60;;;;111826;1242;41124;-68
2022/01/10 05:45:54;;;;;;;29.80;11.20;;;;;2.60;96592.60;;;;111862;1241;41264;-67
2022/01/10 05:48:29;;;;;;;23.80;10.90;;;;;2.60;96596.20;;;;111581;1242;41145;-68
2022/01/10 05:51:01;;;;;;;28.10;10.60;;;;;2.64;96596.00;;;;111629;1244;41624;-67
2022/01/10 05:53:31;;;;;;;29.20;10.70;;;;;2.70;96595.60;;;;111972;1241;40883;-68
2022/01/10 05:56:00;;;;;;;30.10;11.90;;;;;2.70;96591.40;;;;111620;1244;41319;-68
2022/01/10 05:58:31;;;;;;;31.40;11.00;;;;;2.70;96591.40;;;;111740;1242;41156;-67
2022/01/10 06:01:00;;;;;;;28.80;11.70;;;;;2.70;96592.20;;;;111675;1244;41935;-68
2022/01/10 06:03:29;;;;;;;32.20;12.80;;;;;2.70;96592.20;;;;111643;1244;41140;-68
2022/01/10 06:06:03;;;;;;;38.80;14.10;;;;;2.72;96605.20;;;;111878;1242;41130;-68
2022/01/10 06:08:32;;;;;;;33.60;13.20;;;;;2.70;96607.60;;;;111862;1241;41291;-71
2022/01/10 06:11:02;;;;;;;29.90;12.30;;;;;2.70;96610.00;;;;111913;1242;41266;-68
2022/01/10 06:13:36;;;;;;;29.70;11.50;;;;;2.70;96612.80;;;;111953;1241;41120;-69
2022/01/10 06:16:06;;;;;;;31.20;12.70;;;;;2.72;96617.60;;;;111934;1243;41594;-68
2022/01/10 06:18:37;;;;;;;30.50;11.80;;;;;2.74;96615.80;;;;112016;1242;41121;-68
2022/01/10 06:21:06;;;;;;;33.80;11.20;;;;;2.70;96618.40;;;;111888;1241;42522;-68
2022/01/10 06:23:35;;;;;;;31.10;11.20;;;;;2.72;96623.00;;;;111581;1244;40932;-67
2022/01/10 06:26:05;;;;;;;32.90;11.90;;;;;2.76;96629.80;;;;111587;1242;41230;-68
2022/01/10 06:28:34;;;;;;;28.80;11.70;;;;;2.78;96634.40;;;;111568;1244;41622;-70
2022/01/10 06:31:04;;;;;;;35.40;12.30;;;;;2.80;96634.00;;;;111835;1241;41928;-68
2022/01/10 06:33:38;;;;;;;33.10;12.30;;;;;2.80;96641.00;;;;111733;1242;41964;-68
2022/01/10 06:36:09;;;;;;;33.40;12.10;;;;;2.80;96639.80;;;;111979;1242;41196;-69
2022/01/10 06:38:39;;;;;;;31.90;13.10;;;;;2.80;96641.80;;;;111881;1243;41448;-68
2022/01/10 06:41:08;;;;;;;36.50;13.40;;;;;2.80;96647.20;;;;111927;1241;41615;-67
2022/01/10 06:43:39;;;;;;;37.40;13.90;;;;;2.80;96649.40;;;;111902;1244;41227;-66
2022/01/10 06:46:10;;;;;;;35.10;13.00;;;;;2.80;96655.00;;;;111715;1242;41243;-68
2022/01/10 06:48:39;;;;;;;33.40;12.40;;;;;2.80;96660.20;;;;111797;1244;40785;-69
2022/01/10 06:51:09;;;;;;;38.30;14.90;;;;;2.76;96663.60;;;;111457;1241;41146;-67
2022/01/10 06:53:39;;;;;;;34.50;14.10;;;;;2.72;96664.20;;;;111566;1244;40868;-68
2022/01/10 06:56:08;;;;;;;32.90;13.50;;;;;2.72;96665.40;;;;111827;1244;41611;-66
2022/01/10 06:58:38;;;;;;;31.50;13.10;;;;;2.70;96663.20;;;;111623;1244;41145;-66
2022/01/10 07:01:09;;;;;;;30.60;11.90;;;;;2.72;96672.00;;;;111728;1244;41133;-68
2022/01/10 07:03:38;;;;;;;31.60;12.90;;;;;2.78;96674.20;;;;111571;1244;41733;-67
2022/01/10 07:06:14;;;;;;;30.40;13.00;;;;;2.80;96678.40;;;;111828;1243;42238;-66
2022/01/10 07:08:43;;;;;;;27.90;11.30;;;;;2.80;96684.20;;;;111630;1242;41616;-66
2022/01/10 07:11:13;;;;;;;32.70;12.50;;;;;2.80;96687.60;;;;111871;1241;41355;-66
2022/01/10 07:13:43;;;;;;;33.60;13.40;;;;;2.80;96689.20;;;;111876;1241;41684;-66
2022/01/10 07:16:13;;;;;;;32.60;13.40;;;;;2.80;96685.80;;;;111817;1241;42709;-66
2022/01/10 07:18:43;;;;;;;32.50;12.70;;;;;2.80;96685.00;;;;111600;1244;41142;-69
2022/01/10 07:21:19;;;;;;;37.50;16.30;;;;;2.80;96684.00;;;;111736;1243;41601;-68
2022/01/10 07:23:48;;;;;;;37.70;15.70;;;;;2.80;96685.00;;;;111904;1243;42284;-67
2022/01/10 07:26:17;;;;;;;35.30;13.50;;;;;2.80;96684.00;;;;111864;1244;41593;-69
2022/01/10 07:28:46;;;;;;;31.20;13.40;;;;;2.80;96691.80;;;;111885;1241;41162;-68
2022/01/10 07:31:16;;;;;;;29.90;12.50;;;;;2.80;96695.60;;;;111874;1242;41604;-68
2022/01/10 07:33:45;;;;;;;32.90;13.10;;;;;2.88;96695.80;;;;111887;1241;41130;-69
2022/01/10 07:36:14;;;;;;;30.90;12.70;;;;;2.90;96701.80;;;;111621;1242;41226;-69
2022/01/10 07:38:43;;;;;;;29.40;13.20;;;;;2.92;96698.20;;;;111861;1242;42366;-68
2022/01/10 07:41:12;;;;;;;33.10;14.10;;;;;3.00;96699.60;;;;111764;1243;41602;-69
2022/01/10 07:43:41;;;;;;;35.40;15.30;;;;;3.02;96697.40;;;;111781;1241;41148;-69
2022/01/10 07:46:11;;;;;;;37.80;16.10;;;;;3.10;96695.00;;;;111761;1241;41123;-69
2022/01/10 07:48:41;;;;;;;35.90;15.20;;;;;3.10;96697.80;;;;111813;1244;41128;-70
2022/01/10 07:51:11;;;;;;;34.60;14.30;;;;;3.20;96700.00;;;;111781;1242;41767;-68
2022/01/10 07:53:41;;;;;;;42.90;19.50;;;;;3.22;96699.20;;;;111778;1244;41121;-68
2022/01/10 07:56:10;;;;;;;42.90;18.70;;;;;3.30;96703.00;;;;111768;1241;41139;-68
2022/01/10 07:58:40;;;;;;;44.40;19.50;;;;;3.30;96707.40;;;;111811;1243;42353;-68
2022/01/10 08:01:12;;;;;;;50.30;20.10;;;;;3.40;96713.40;;;;111781;1241;41547;-68
2022/01/10 08:03:42;;;;;;;43.80;18.40;;;;;3.40;96715.00;;;;111740;1241;41214;-68
2022/01/10 08:06:11;;;;;;;42.80;17.50;;;;;3.40;96719.60;;;;111439;1241;41153;-67
2022/01/10 08:08:41;;;;;;;39.00;16.40;;;;;3.40;96722.40;;;;111669;1244;41135;-68
2022/01/10 08:11:10;;;;;;;35.10;15.60;;;;;3.40;96726.00;;;;111726;1242;41347;-68
2022/01/10 08:13:41;;;;;;;35.40;14.70;;;;;3.40;96728.00;;;;111751;1241;41285;-69
2022/01/10 08:16:10;;;;;;;31.20;13.40;;;;;3.50;96728.40;;;;111799;1241;41568;-69
2022/01/10 08:18:40;;;;;;;33.20;13.50;;;;;3.50;96728.00;;;;111780;1242;41149;-68
2022/01/10 08:21:09;;;;;;;31.00;14.10;;;;;3.60;96729.20;;;;111785;1241;41273;-68
2022/01/10 08:23:39;;;;;;;29.10;13.30;;;;;3.70;96725.80;;;;111824;1243;41134;-69
2022/01/10 08:26:08;;;;;;;36.30;16.20;;;;;3.80;96725.00;;;;111780;1243;41929;-69
2022/01/10 08:28:39;;;;;;;30.50;14.70;;;;;3.82;96729.00;;;;111746;1241;41318;-68
2022/01/10 08:31:10;;;;;;;33.70;15.20;;;;;3.88;96726.00;;;;111501;1242;41145;-68
2022/01/10 08:33:39;;;;;;;31.00;13.90;;;;;3.90;96724.20;;;;111731;1241;41794;-71
2022/01/10 08:36:08;;;;;;;27.40;11.50;;;;;3.90;96723.80;;;;111865;1244;41873;-69
2022/01/10 08:38:37;;;;;;;28.40;11.90;;;;;3.90;96722.80;;;;111549;1244;41159;-67
2022/01/10 08:41:06;;;;;;;27.70;12.40;;;;;4.00;96725.00;;;;111830;1242;41136;-68
2022/01/10 08:43:35;;;;;;;25.90;11.30;;;;;4.10;96722.00;;;;111864;1244;41363;-69
2022/01/10 08:46:04;;;;;;;26.20;11.20;;;;;4.20;96723.40;;;;111617;1244;41120;-68
2022/01/10 08:48:40;;;;;;;24.30;11.20;;;;;4.30;96721.20;;;;111763;1244;42185;-65
2022/01/10 08:51:10;;;;;;;24.90;11.80;;;;;4.48;96730.00;;;;111549;1242;41610;-66
2022/01/10 08:53:39;;;;;;;27.10;12.80;;;;;4.64;96728.40;;;;111867;1241;41173;-69
2022/01/10 08:56:08;;;;;;;26.20;11.60;;;;;4.80;96730.40;;;;111857;1242;41586;-70
2022/01/10 08:58:37;;;;;;;24.50;12.40;;;;;5.00;96735.80;;;;111876;1241;41586;-67
2022/01/10 09:01:07;;;;;;;26.50;12.30;;;;;5.18;96745.80;;;;111408;1241;704418;-68
2022/01/10 09:03:37;;;;;;;23.50;11.80;;;;;5.28;96749.00;;;;111766;1243;41944;-67
2022/01/10 09:06:06;;;;;;;23.80;11.80;;;;;5.38;96745.00;;;;111700;1244;41177;-66
2022/01/10 09:08:39;;;;;;;24.10;11.10;;;;;5.50;96750.60;;;;111934;1241;41149;-66
2022/01/10 09:11:08;;;;;;;23.10;11.50;;;;;5.60;96743.80;;;;111987;1241;41332;-69
2022/01/10 09:13:37;;;;;;;24.90;12.70;;;;;5.72;96744.80;;;;111698;1243;42080;-68
2022/01/10 09:16:09;;;;;;;23.70;11.40;;;;;5.80;96747.80;;;;111944;1241;41603;-67
2022/01/10 09:18:38;;;;;;;22.00;10.90;;;;;5.80;96747.40;;;;111936;1240;42282;-71
2022/01/10 09:21:10;;;;;;;21.90;10.50;;;;;5.80;96751.20;;;;111920;1241;41262;-67
2022/01/10 09:23:39;;;;;;;22.70;10.50;;;;;5.80;96753.00;;;;111660;1243;41452;-67
2022/01/10 09:26:08;;;;;;;27.20;13.10;;;;;5.80;96745.20;;;;111825;1241;41868;-66
2022/01/10 09:28:38;;;;;;;23.00;10.50;;;;;5.80;96746.20;;;;111831;1241;41151;-69
2022/01/10 09:31:07;;;;;;;23.40;11.40;;;;;5.70;96744.60;;;;111817;1242;42512;-66
2022/01/10 09:33:37;;;;;;;20.00;10.50;;;;;5.70;96747.40;;;;111830;1242;41575;-66
2022/01/10 09:36:06;;;;;;;22.00;10.90;;;;;5.72;96745.00;;;;111785;1241;41145;-66
2022/01/10 09:38:35;;;;;;;26.80;13.60;;;;;5.80;96745.00;;;;111584;1244;41936;-68
2022/01/10 09:41:04;;;;;;;27.20;12.30;;;;;5.80;96742.40;;;;111854;1241;42243;-67
2022/01/10 09:43:35;;;;;;;24.40;12.10;;;;;5.80;96747.40;;;;111870;1241;41135;-68
2022/01/10 09:46:05;;;;;;;28.70;12.80;;;;;5.90;96738.20;;;;111849;1241;41147;-66
2022/01/10 09:48:34;;;;;;;26.10;13.40;;;;;6.00;96737.40;;;;111870;1241;41405;-66
2022/01/10 09:51:26;;;;;;;24.90;12.50;;;;;6.00;96737.60;;;;111824;1241;42193;-67
2022/01/10 09:53:57;;;;;;;25.60;12.60;;;;;6.10;96735.80;;;;111798;1241;41133;-68
2022/01/10 09:56:28;;;;;;;22.00;11.60;;;;;6.10;96734.00;;;;111777;1241;41133;-68
2022/01/10 09:58:58;;;;;;;25.40;12.60;;;;;6.20;96733.20;;;;111775;1241;41140;-66
2022/01/10 10:01:30;;;;;;;24.30;11.80;;;;;6.30;96738.80;;;;111785;1243;41918;-68
2022/01/10 10:04:01;;;;;;;24.60;12.40;;;;;6.34;96735.00;;;;111765;1241;41216;-68
2022/01/10 10:06:31;;;;;;;24.10;11.50;;;;;6.40;96735.60;;;;111797;1242;41890;-71
2022/01/10 10:09:06;;;;;;;23.70;11.30;;;;;6.40;96738.40;;;;111635;1243;42100;-68
2022/01/10 10:11:42;;;;;;;25.40;12.60;;;;;6.50;96736.20;;;;111913;1242;41159;-69
2022/01/10 10:14:13;;;;;;;21.90;10.90;;;;;6.60;96730.00;;;;111884;1242;42348;-68
2022/01/10 10:16:48;;;;;;;20.90;10.40;;;;;6.80;96725.80;;;;111931;1243;41130;-69
2022/01/10 10:19:23;;;;;;;20.00;10.10;;;;;7.00;96724.60;;;;111872;1243;41189;-67
2022/01/10 10:21:53;;;;;;;20.60;10.40;;;;;7.12;96729.00;;;;111791;1241;41146;-68
2022/01/10 10:24:23;;;;;;;21.10;10.50;;;;;7.30;96723.40;;;;111776;1241;41910;-68
2022/01/10 10:26:52;;;;;;;21.80;10.70;;;;;7.50;96721.00;;;;111762;1243;42289;-68
2022/01/10 10:29:24;;;;;;;20.90;10.60;;;;;7.70;96717.60;;;;111586;1243;41638;-69
2022/01/10 10:31:55;;;;;;;20.50;10.30;;;;;7.92;96725.60;;;;111834;1241;41650;-68
2022/01/10 10:34:28;;;;;;;;;;;;;8.16;96723.80;;;;111631;1241;41977;-69
2022/01/10 10:37:04;;;;;;;21.20;10.40;;;;;8.34;96722.60;;;;111687;1242;42035;-71
2022/01/10 10:39:36;;;;;;;19.30;9.70;;;;;8.62;96716.20;;;;111844;1241;41369;-71
2022/01/10 10:42:16;;;;;;;20.30;10.40;;;;;9.24;96715.40;;;;111798;1241;41678;-69
2022/01/10 10:44:45;;;;;;;19.30;9.30;;;;;10.16;96711.00;;;;111737;1241;41300;-69
2022/01/10 10:47:17;;;;;;;17.20;9.00;;;;;11.36;96709.80;;;;111873;1241;41137;-69
2022/01/10 10:49:50;;;;;;;17.50;9.20;;;;;12.26;96704.80;;;;111878;1241;41132;-69
2022/01/10 10:52:19;;;;;;;16.20;8.90;;;;;13.20;96696.00;;;;111933;1241;41578;-69
2022/01/10 10:54:48;;;;;;;17.40;9.10;;;;;14.20;96707.80;;;;111930;1241;41604;-68
2022/01/10 10:57:17;;;;;;;16.90;8.80;;;;;14.60;96707.80;;;;111795;1241;41250;-69
2022/01/10 10:59:46;;;;;;;14.90;8.10;;;;;14.50;96708.40;;;;111831;1241;41263;-69
2022/01/10 11:02:15;;;;;;;17.30;8.80;;;;;14.60;96711.00;;;;111857;1241;41156;-69
2022/01/10 11:04:45;;;;;;;16.50;8.40;;;;;14.50;96713.40;;;;111980;1241;41635;-69
2022/01/10 11:07:16;;;;;;;14.70;7.70;;;;;14.42;96717.00;;;;111935;1243;40859;-68
2022/01/10 11:10:06;;;;;;;17.20;8.90;;;;;14.28;96718.40;;;;111698;1241;41127;-69
2022/01/10 11:12:41;;;;;;;18.10;8.20;;;;;13.96;96717.20;;;;111717;1241;42364;-70
2022/01/10 11:15:12;;;;;;;17.50;9.30;;;;;13.62;96725.00;;;;111709;1241;41179;-69
2022/01/10 11:17:43;;;;;;;15.00;8.00;;;;;13.28;96727.80;;;;111725;1241;41127;-67
2022/01/10 11:20:14;;;;;;;21.70;9.40;;;;;12.90;96726.80;;;;111778;1243;41160;-69
2022/01/10 11:22:48;;;;;;;16.60;9.10;;;;;12.62;96729.20;;;;111820;1241;41927;-68
2022/01/10 11:25:36;;;;;;;17.90;9.10;;;;;12.40;96734.40;;;;111807;1241;41308;-67
2022/01/10 11:28:08;;;;;;;17.60;9.70;;;;;12.20;96727.20;;;;111824;1241;41662;-67
2022/01/10 11:30:44;;;;;;;17.10;8.80;;;;;12.00;96729.60;;;;111789;1242;41636;-67
2022/01/10 11:33:36;;;;;;;17.70;9.80;;;;;11.90;96739.40;;;;111815;1241;42212;-67
2022/01/10 11:36:10;;;;;;;15.50;8.00;;;;;11.90;96740.40;;;;111835;1241;41142;-65
2022/01/10 11:38:53;;;;;;;17.30;9.30;;;;;12.08;96736.40;;;;111849;1241;41147;-68
2022/01/10 11:41:28;;;;;;;16.30;8.40;;;;;12.48;96731.80;;;;111844;1241;41495;-68
2022/01/10 11:44:09;;;;;;;17.40;8.80;;;;;13.30;96725.80;;;;111810;1241;41140;-67
2022/01/10 11:46:49;;;;;;;16.40;8.20;;;;;14.24;96722.20;;;;111833;1241;41130;-68
2022/01/10 11:49:20;;;;;;;16.40;8.00;;;;;15.36;96720.60;;;;111856;1241;41139;-68
2022/01/10 11:51:52;;;;;;;15.80;8.20;;;;;16.20;96720.60;;;;111788;1241;41114;-66
2022/01/10 11:54:26;;;;;;;17.10;9.20;;;;;16.86;96702.80;;;;111707;1241;41155;-68
2022/01/10 11:57:00;;;;;;;16.90;7.50;;;;;17.72;96706.00;;;;111777;1241;41635;-68
2022/01/10 11:59:31;;;;;;;14.50;7.20;;;;;18.52;96711.00;;;;111777;1241;41715;-68
2022/01/10 12:02:05;;;;;;;14.30;7.50;;;;;18.90;96711.80;;;;111780;1243;41599;-68
2022/01/10 12:04:38;;;;;;;15.70;7.50;;;;;18.96;96717.20;;;;111800;1241;41140;-66
2022/01/10 12:07:09;;;;;;;15.00;7.40;;;;;18.74;96726.20;;;;111729;1241;41977;-68
2022/01/10 12:09:39;;;;;;;14.60;7.50;;;;;18.28;96726.40;;;;111602;1244;41142;-69
2022/01/10 12:12:10;;;;;;;15.10;7.30;;;;;17.60;96730.60;;;;111731;1243;41126;-68
2022/01/10 12:14:40;;;;;;;14.80;7.30;;;;;16.96;96739.20;;;;111728;1242;41601;-68
2022/01/10 12:17:09;;;;;;;14.20;7.70;;;;;16.28;96742.60;;;;111446;1244;41155;-69
2022/01/10 12:19:39;;;;;;;14.40;7.30;;;;;15.70;96746.60;;;;111745;1241;42911;-69
2022/01/10 12:22:09;;;;;;;15.00;7.70;;;;;15.16;96752.20;;;;111491;1244;41150;-67
2022/01/10 12:24:40;;;;;;;15.20;7.70;;;;;14.66;96758.60;;;;111517;1243;41120;-67
2022/01/10 12:27:09;;;;;;;;;;;;;14.20;96768.60;;;;111562;1242;42148;-69
2022/01/10 12:29:42;;;;;;;13.80;7.40;;;;;13.70;96774.60;;;;111544;1243;42810;-69
2022/01/10 12:32:12;;;;;;;16.00;7.80;;;;;13.22;96786.60;;;;111596;1242;41170;-69